2O3 weather

Angwin Parrett Field
Angwin, California, United States

Public forecast

Using degrees Fahrenheit for public forecast. Weather courtesy of forecast.io.

METAR (pilot weather report)

Closest report is Charles M. Schulz Sonoma County Airport, 18.2 nm (33.8 km) WSW. Retrieved 2019/08/25 10:26 UTC (18 minutes ago):

KSTS 251026Z AUTO 00000KT 1/2SM FG VV002 13/13 A2998 RMK AO2 T01280128

TAF (pilot weather forecast)

Closest forecast is Charles M. Schulz Sonoma County Airport, 18.2 nm (33.8 km) WSW. Retrieved 2019/08/25 06:40 UTC (4 hours ago):

TAF KSTS 250537Z 2506/2606 18005KT P6SM SKC TEMPO 2506/2508 2SM BR BKN006 FM251000 VRB03KT 1/2SM FG VV002 FM251700 19011KT P6SM SKC FM260400 19005KT P6SM SKC